Time;durP1;ratioP1;P1;durP2;ratioP2;P2;SDS_P1;SDS_P2;PMS_P1;PMS_P2;Temp;Humidity;BMP_temperature;BMP_pressure;BME280_temperature;BME280_humidity;BME280_pressure;Samples;Min_cycle;Max_cycle;Signal;HPM_P1;HPM_P2
2022/12/31 00:01:19;;;;;;;1.83;0.65;;;;;;;11.77;42.52;99347.53;6042383;23;20006;-87
2022/12/31 00:03:45;;;;;;;1.00;0.60;;;;;;;11.78;42.26;99351.03;6018297;23;20069;-87
2022/12/31 00:06:25;;;;;;;1.70;0.88;;;;;;;11.89;42.42;99373.59;6042603;23;20042;-87
2022/12/31 00:08:51;;;;;;;2.08;0.80;;;;;;;11.89;42.60;99368.22;6019962;23;20093;-87
2022/12/31 00:11:17;;;;;;;0.88;0.47;;;;;;;11.68;42.64;99337.34;6042427;23;20089;-87
2022/12/31 00:13:43;;;;;;;2.20;0.68;;;;;;;11.65;42.51;99328.69;6018202;23;20049;-87
2022/12/31 00:16:10;;;;;;;1.27;0.65;;;;;;;11.90;42.37;99359.97;6042298;23;20006;-87
2022/12/31 00:18:36;;;;;;;1.20;0.68;;;;;;;11.55;42.73;99303.50;6018959;23;20013;-87
2022/12/31 00:21:07;;;;;;;1.33;0.73;;;;;;;11.79;42.46;99337.41;6019593;23;20065;-87
2022/12/31 00:23:32;;;;;;;1.90;0.80;;;;;;;11.78;42.47;99341.16;6042521;23;20352;-87
2022/12/31 00:26:03;;;;;;;0.90;0.47;;;;;;;11.79;42.38;99328.56;6042748;23;20028;-87
2022/12/31 00:28:29;;;;;;;1.80;0.70;;;;;;;11.78;42.42;99338.47;6020851;23;20388;-87
2022/12/31 00:30:54;;;;;;;2.97;0.85;;;;;;;11.79;42.31;99337.41;6044440;23;20012;-87
2022/12/31 00:33:20;;;;;;;1.48;0.85;;;;;;;11.90;42.40;99345.75;6020680;23;20320;-88
2022/12/31 00:35:46;;;;;;;1.00;0.60;;;;;;;11.83;42.56;99333.28;6020170;23;20010;-87
2022/12/31 00:38:12;;;;;;;2.35;0.80;;;;;;;11.84;42.41;99345.59;6020468;23;20006;-87
2022/12/31 00:40:37;;;;;;;1.02;0.68;;;;;;;11.89;42.51;99355.66;6020694;23;20006;-88
2022/12/31 00:43:03;;;;;;;2.60;0.77;;;;;;;11.67;42.67;99323.13;6021218;23;20433;-87
2022/12/31 00:45:29;;;;;;;1.10;0.75;;;;;;;11.76;42.39;99342.41;6021765;23;20013;-87
2022/12/31 00:47:55;;;;;;;1.88;0.60;;;;;;;11.84;42.43;99356.31;6020372;23;20376;-87
2022/12/31 00:50:20;;;;;;;2.95;0.90;;;;;;;11.72;42.51;99334.00;6019106;23;20505;-87
2022/12/31 00:52:46;;;;;;;0.82;0.50;;;;;;;11.83;42.54;99348.50;6020545;23;20002;-87
2022/12/31 00:55:12;;;;;;;2.95;0.90;;;;;;;11.95;42.77;99375.41;6020618;23;20065;-87
2022/12/31 00:57:38;;;;;;;1.15;0.60;;;;;;;11.47;42.56;99296.56;6020210;23;20047;-87
2022/12/31 01:00:06;;;;;;;2.42;1.13;;;;;;;11.83;42.52;99362.72;6044248;23;20404;-87
2022/12/31 01:02:32;;;;;;;1.73;0.60;;;;;;;11.78;42.48;99345.66;6021290;23;20234;-87
2022/12/31 01:05:00;;;;;;;1.88;0.90;;;;;;;11.71;42.54;99329.69;6021371;23;19998;-87
2022/12/31 01:07:26;;;;;;;1.17;0.52;;;;;;;11.94;42.57;99369.22;6020921;23;20010;-87
2022/12/31 01:09:52;;;;;;;2.03;0.73;;;;;;;11.82;42.18;99360.25;6020290;23;20551;-87
2022/12/31 01:12:18;;;;;;;0.75;0.60;;;;;;;11.77;42.63;99344.84;6021093;23;20040;-87
2022/12/31 01:14:44;;;;;;;2.63;0.80;;;;;;;11.80;42.46;99354.31;6021421;23;20352;-87
2022/12/31 01:17:09;;;;;;;0.85;0.57;;;;;;;11.78;42.45;99351.84;6021045;23;20444;-88
2022/12/31 01:19:35;;;;;;;1.67;0.70;;;;;;;11.74;42.43;99342.63;6020091;23;20015;-87
2022/12/31 01:22:01;;;;;;;0.68;0.47;;;;;;;11.83;42.59;99353.84;6020905;23;20062;-87
2022/12/31 01:24:27;;;;;;;1.23;0.52;;;;;;;11.63;42.28;99327.28;6020899;23;20322;-87
2022/12/31 01:26:56;;;;;;;1.33;0.50;;;;;;;11.67;42.66;99343.72;6020315;23;20068;-87
2022/12/31 01:29:22;;;;;;;1.65;0.68;;;;;;;11.66;42.40;99337.56;6022038;23;20050;-87
2022/12/31 01:31:48;;;;;;;1.63;0.68;;;;;;;11.96;42.26;99388.56;6019063;23;20002;-88
2022/12/31 01:34:13;;;;;;;0.85;0.50;;;;;;;11.74;42.57;99355.19;6019799;23;20038;-87
2022/12/31 01:36:39;;;;;;;1.20;0.85;;;;;;;11.88;42.80;99378.09;6043533;23;20006;-87
2022/12/31 01:39:06;;;;;;;1.58;0.50;;;;;;;11.71;42.27;99351.09;6019976;23;20010;-87
2022/12/31 01:41:37;;;;;;;2.42;0.70;;;;;;;11.64;42.61;99326.25;6020230;23;20010;-91
2022/12/31 01:44:12;;;;;;;1.30;0.60;;;;;;;11.97;42.83;99365.28;6044048;23;20052;-87
2022/12/31 01:46:42;;;;;;;0.95;0.60;;;;;;;11.68;42.56;99332.00;6067875;23;20339;-87
2022/12/31 01:49:32;;;;;;;2.60;0.90;;;;;;;11.96;42.47;99363.66;6044341;23;20375;-87
2022/12/31 01:52:10;;;;;;;1.95;0.70;;;;;;;11.97;42.52;99354.56;6043722;23;20010;-87
2022/12/31 01:54:38;;;;;;;1.65;0.57;;;;;;;11.90;42.55;99349.28;6067769;23;20038;-87
2022/12/31 01:57:04;;;;;;;2.67;0.65;;;;;;;11.71;42.53;99310.97;6019924;23;20026;-87
2022/12/31 01:59:34;;;;;;;1.20;0.60;;;;;;;11.65;42.82;99303.81;6042896;23;20433;-87
2022/12/31 02:02:00;;;;;;;2.17;0.60;;;;;;;11.75;42.62;99303.31;6019974;23;20704;-88
2022/12/31 02:04:26;;;;;;;0.73;0.47;;;;;;;11.48;42.71;99267.97;6042584;23;20007;-87
2022/12/31 02:07:05;;;;;;;1.50;0.82;;;;;;;11.71;42.71;99280.69;6043009;23;20460;-88
2022/12/31 02:09:37;;;;;;;3.13;0.65;;;;;;;11.78;42.71;99298.31;6019692;23;20385;-87
2022/12/31 02:12:03;;;;;;;0.82;0.50;;;;;;;11.73;42.69;99290.13;6043505;23;20010;-87
2022/12/31 02:14:34;;;;;;;1.27;0.60;;;;;;;11.74;42.51;99297.09;6043002;23;20014;-87
2022/12/31 02:17:03;;;;;;;1.52;0.60;;;;;;;11.96;42.70;99328.84;6042677;23;20609;-87
2022/12/31 02:20:00;;;;;;;0.90;0.60;;;;;;;11.95;42.71;99330.72;6066786;23;20652;-87
2022/12/31 02:22:50;;;;;;;2.50;0.52;;;;;;;11.95;42.55;99324.53;6046971;23;20014;-88
2022/12/31 02:25:24;;;;;;;1.55;0.63;;;;;;;11.95;42.55;99316.50;6066303;23;20052;-88
2022/12/31 02:28:13;;;;;;;1.23;0.47;;;;;;;11.75;42.65;99288.06;6042448;23;20038;-88
2022/12/31 02:30:39;;;;;;;0.93;0.50;;;;;;;11.70;42.57;99258.47;6043285;23;20061;-88
2022/12/31 02:33:15;;;;;;;0.40;0.32;;;;;;;11.96;42.38;99304.75;6019399;23;20384;-88
2022/12/31 02:35:48;;;;;;;1.58;0.60;;;;;;;11.97;42.68;99301.84;6019936;23;20018;-87
2022/12/31 02:38:20;;;;;;;1.40;0.60;;;;;;;11.69;42.71;99262.16;6042888;23;20007;-88
2022/12/31 02:40:47;;;;;;;1.65;0.80;;;;;;;11.72;42.30;99269.75;6042881;23;20017;-87
2022/12/31 02:43:13;;;;;;;0.70;0.40;;;;;;;11.83;42.61;99284.25;6019653;23;20344;-88
2022/12/31 02:45:44;;;;;;;0.70;0.50;;;;;;;11.89;42.72;99282.56;6018861;23;20022;-88
2022/12/31 02:48:42;;;;;;;1.27;0.47;;;;;;;11.86;42.49;99266.94;6019591;23;20093;-87
2022/12/31 02:51:50;;;;;;;1.73;0.75;;;;;;;11.98;42.69;99291.94;6025899;23;20101;-88
2022/12/31 02:54:25;;;;;;;1.00;0.50;;;;;;;11.93;42.86;99297.97;5951792;24;20096;-88
2022/12/31 02:57:13;;;;;;;0.65;0.35;;;;;;;11.96;42.56;99299.41;6032470;23;20010;-90
2022/12/31 03:02:45;;;;;;;1.25;0.50;;;;;;;11.95;42.67;99287.03;6070835;23;20495;-90
2022/12/31 03:05:12;;;;;;;1.73;0.60;;;;;;;11.67;42.45;99240.16;6020761;23;20014;-88
2022/12/31 03:07:38;;;;;;;1.13;0.60;;;;;;;11.76;42.69;99246.03;6019535;23;20017;-87
2022/12/31 03:10:04;;;;;;;1.27;0.60;;;;;;;11.86;42.73;99272.28;6043710;23;20010;-88
2022/12/31 03:12:46;;;;;;;0.63;0.40;;;;;;;11.77;42.85;99264.56;6019966;23;20339;-88
2022/12/31 03:15:20;;;;;;;0.63;0.40;;;;;;;11.81;42.80;99276.47;6045175;23;20006;-88
2022/12/31 03:17:47;;;;;;;1.40;0.50;;;;;;;11.97;42.71;99295.66;6042138;23;20321;-88
2022/12/31 03:22:57;;;;;;;1.08;0.50;;;;;;;11.80;42.77;99269.47;6050769;23;20038;-88
2022/12/31 03:25:33;;;;;;;0.85;0.57;;;;;;;11.77;42.80;99258.38;6043249;23;20022;-88
2022/12/31 03:27:59;;;;;;;1.30;0.50;;;;;;;11.81;42.65;99264.91;6044711;23;20069;-88
2022/12/31 03:30:25;;;;;;;1.80;0.60;;;;;;;11.95;42.60;99281.69;6041845;23;20006;-88
2022/12/31 03:32:51;;;;;;;0.70;0.40;;;;;;;11.95;42.62;99279.00;6042752;23;20041;-88
2022/12/31 03:35:20;;;;;;;0.63;0.50;;;;;;;11.64;42.66;99238.75;6019166;23;20014;-88
2022/12/31 03:37:46;;;;;;;0.65;0.50;;;;;;;11.64;42.54;99229.91;6042102;23;20387;-87
2022/12/31 03:40:13;;;;;;;1.02;0.60;;;;;;;11.61;42.83;99233.84;6042398;23;20010;-88
2022/12/31 03:42:39;;;;;;;1.52;0.50;;;;;;;11.67;42.57;99226.78;6042328;23;20007;-88
2022/12/31 03:45:05;;;;;;;2.35;0.60;;;;;;;11.71;42.61;99233.34;6018913;23;20012;-88
2022/12/31 03:47:37;;;;;;;1.15;0.55;;;;;;;11.94;42.50;99261.31;6018729;23;20015;-88
2022/12/31 03:50:04;;;;;;;0.45;0.40;;;;;;;11.84;42.54;99249.22;6019236;23;20014;-87
2022/12/31 03:52:30;;;;;;;1.23;0.50;;;;;;;11.75;42.82;99239.06;6019065;23;20038;-88
2022/12/31 03:54:55;;;;;;;1.52;0.43;;;;;;;11.64;42.82;99201.28;6018277;23;20011;-88
2022/12/31 03:57:22;;;;;;;0.98;0.50;;;;;;;11.79;42.73;99230.34;6018463;23;20010;-88
2022/12/31 03:59:51;;;;;;;1.10;0.60;;;;;;;11.63;42.66;99196.16;6017723;23;20014;-88
2022/12/31 04:02:17;;;;;;;1.02;0.40;;;;;;;11.77;42.79;99227.06;6020444;23;20010;-88
2022/12/31 04:04:45;;;;;;;1.98;0.70;;;;;;;11.67;42.71;99209.91;6020792;23;20037;-88
2022/12/31 04:07:11;;;;;;;1.88;0.60;;;;;;;11.79;42.60;99210.78;6021830;23;20006;-88
2022/12/31 04:09:36;;;;;;;1.88;0.70;;;;;;;11.69;42.50;99205.97;6043471;23;20305;-89
2022/12/31 04:12:02;;;;;;;0.88;0.43;;;;;;;11.73;42.42;99204.50;6020366;23;20010;-88
2022/12/31 04:14:28;;;;;;;0.73;0.50;;;;;;;11.61;42.51;99177.66;6020216;23;20121;-88
2022/12/31 04:16:54;;;;;;;1.58;0.55;;;;;;;11.62;42.39;99175.78;6020264;23;20508;-88
2022/12/31 04:19:19;;;;;;;1.15;0.57;;;;;;;11.68;42.45;99179.44;6020295;23;20011;-89
2022/12/31 04:21:45;;;;;;;2.05;1.13;;;;;;;11.93;42.78;99203.44;6043177;23;20093;-88
2022/12/31 04:24:11;;;;;;;2.05;0.50;;;;;;;11.63;42.66;99156.81;6043881;23;20022;-88
2022/12/31 04:26:37;;;;;;;0.63;0.40;;;;;;;11.61;42.61;99152.75;6020133;23;20022;-88
2022/12/31 04:29:03;;;;;;;1.15;0.70;;;;;;;11.80;42.65;99169.63;6020702;23;20447;-89
2022/12/31 04:31:28;;;;;;;1.52;0.55;;;;;;;11.72;42.54;99164.56;6020074;23;20022;-88
2022/12/31 04:33:54;;;;;;;3.75;0.60;;;;;;;11.68;42.51;99164.19;6020018;23;20006;-89
2022/12/31 04:36:20;;;;;;;0.77;0.40;;;;;;;11.56;42.67;99137.38;6020142;23;20011;-87
2022/12/31 04:38:46;;;;;;;1.92;0.55;;;;;;;11.67;42.84;99146.50;6020603;23;20057;-88
2022/12/31 04:41:18;;;;;;;0.68;0.50;;;;;;;11.52;42.82;99108.59;6020257;23;20010;-91
2022/12/31 04:43:51;;;;;;;0.75;0.40;;;;;;;11.65;42.71;99121.81;6044733;23;20033;-88
2022/12/31 04:46:20;;;;;;;0.40;0.38;;;;;;;11.62;42.79;99125.78;6020200;23;20026;-88
2022/12/31 04:48:45;;;;;;;2.45;0.50;;;;;;;11.69;42.69;99122.19;6020489;23;20014;-88
2022/12/31 04:51:11;;;;;;;0.73;0.47;;;;;;;11.60;42.81;99100.28;6020321;23;20021;-88
2022/12/31 04:53:37;;;;;;;0.70;0.50;;;;;;;11.75;42.90;99113.25;6043717;23;20002;-88
2022/12/31 04:56:03;;;;;;;0.52;0.40;;;;;;;11.63;42.70;99092.59;6020309;23;20514;-88
2022/12/31 04:58:29;;;;;;;1.00;0.40;;;;;;;11.88;42.84;99128.31;6044254;23;20560;-88
2022/12/31 05:00:55;;;;;;;1.23;0.50;;;;;;;11.67;42.87;99092.97;6020257;23;20010;-88
2022/12/31 05:03:21;;;;;;;1.00;0.50;;;;;;;11.71;42.90;99085.28;6019935;23;20013;-88
2022/12/31 05:05:48;;;;;;;0.68;0.47;;;;;;;11.52;42.93;99069.31;6043229;23;20360;-88
2022/12/31 05:08:14;;;;;;;0.70;0.40;;;;;;;11.64;42.66;99072.00;6020883;23;20519;-88
2022/12/31 05:10:40;;;;;;;2.40;0.70;;;;;;;11.68;42.87;99062.50;6020175;23;20007;-88
2022/12/31 05:13:06;;;;;;;0.73;0.50;;;;;;;11.87;42.71;99086.53;6019676;23;20307;-88
2022/12/31 05:15:32;;;;;;;2.08;0.55;;;;;;;11.63;42.69;99055.13;6019655;23;20066;-87
2022/12/31 05:17:57;;;;;;;1.08;0.40;;;;;;;11.55;42.37;99042.06;6020127;23;20041;-88
2022/12/31 05:20:23;;;;;;;2.20;0.60;;;;;;;11.75;42.52;99063.22;6020515;23;20089;-88
2022/12/31 05:22:49;;;;;;;1.60;0.52;;;;;;;11.76;42.49;99045.28;6019978;23;20084;-88
2022/12/31 05:25:15;;;;;;;1.38;0.50;;;;;;;11.54;42.59;99004.84;6019800;23;20066;-89
2022/12/31 05:27:40;;;;;;;0.75;0.43;;;;;;;11.54;42.58;99012.88;6043129;23;20426;-90
2022/12/31 05:30:07;;;;;;;0.63;0.45;;;;;;;11.72;42.93;99039.56;6020202;23;20448;-88
2022/12/31 05:32:33;;;;;;;1.98;0.60;;;;;;;11.87;42.49;99046.38;6019853;23;20081;-88
2022/12/31 05:34:58;;;;;;;2.17;0.50;;;;;;;11.57;42.61;98999.03;6020832;23;20049;-89
2022/12/31 05:37:25;;;;;;;1.48;0.68;;;;;;;11.69;42.57;99002.56;6020980;23;20014;-88
2022/12/31 05:39:51;;;;;;;1.05;0.50;;;;;;;11.56;42.49;98989.41;6020602;23;20014;-88
2022/12/31 05:42:16;;;;;;;0.85;0.50;;;;;;;11.53;42.72;98985.31;6021119;23;20340;-88
2022/12/31 05:44:48;;;;;;;2.15;0.70;;;;;;;11.83;42.68;99020.06;6020855;23;20018;-91
2022/12/31 05:47:14;;;;;;;2.65;0.60;;;;;;;11.61;42.72;98992.19;6021401;23;20010;-90
2022/12/31 05:49:43;;;;;;;1.55;0.43;;;;;;;11.73;42.81;99013.63;6019992;23;20511;-90
2022/12/31 05:52:08;;;;;;;1.67;0.60;;;;;;;11.65;42.68;98993.38;6019976;23;20007;-91
2022/12/31 05:54:35;;;;;;;2.30;0.63;;;;;;;11.45;42.58;98957.03;6043971;23;20010;-90
2022/12/31 05:57:01;;;;;;;1.00;0.52;;;;;;;11.56;42.70;98965.31;6021164;23;20010;-90
2022/12/31 05:59:27;;;;;;;0.68;0.43;;;;;;;11.53;42.43;98960.41;6020895;23;20018;-90
2022/12/31 06:01:52;;;;;;;4.57;0.60;;;;;;;11.52;42.91;98961.44;6020450;23;20321;-90
2022/12/31 06:04:18;;;;;;;1.80;0.60;;;;;;;11.54;42.74;98970.06;6020573;23;20340;-90
2022/12/31 06:06:44;;;;;;;2.38;0.75;;;;;;;11.61;42.49;98976.16;6019674;23;20431;-90
2022/12/31 06:09:10;;;;;;;1.55;0.57;;;;;;;11.48;42.82;98952.25;6019970;23;20010;-90
2022/12/31 06:11:35;;;;;;;3.90;0.80;;;;;;;11.53;42.88;98949.72;6018758;23;20017;-89
2022/12/31 06:14:01;;;;;;;3.00;0.77;;;;;;;11.58;42.70;98963.22;6043375;23;20021;-91
2022/12/31 06:16:27;;;;;;;1.88;0.57;;;;;;;11.78;42.70;98977.13;6019580;23;20007;-90
2022/12/31 06:18:53;;;;;;;3.03;0.90;;;;;;;11.66;42.84;98944.16;6019411;23;20392;-90
2022/12/31 06:21:19;;;;;;;1.77;0.60;;;;;;;11.60;42.81;98921.00;6019788;23;20010;-90
2022/12/31 06:23:45;;;;;;;1.80;0.70;;;;;;;11.56;42.88;98920.63;6042349;23;20015;-90
2022/12/31 06:26:11;;;;;;;1.63;0.50;;;;;;;11.53;42.79;98890.84;6028338;23;20403;-90
2022/12/31 06:28:38;;;;;;;1.58;0.73;;;;;;;11.73;42.77;98934.16;6042499;23;20021;-90
2022/12/31 06:31:05;;;;;;;2.70;0.70;;;;;;;11.70;42.67;98915.88;6042705;23;20010;-90
2022/12/31 06:33:35;;;;;;;2.15;0.82;;;;;;;11.35;42.69;98864.97;6042903;23;20011;-90
2022/12/31 06:36:02;;;;;;;3.05;0.70;;;;;;;11.62;42.93;98898.31;6043177;23;20007;-90
2022/12/31 06:38:29;;;;;;;1.45;0.50;;;;;;;11.56;42.87;98907.25;6043297;23;20040;-90
2022/12/31 06:40:55;;;;;;;1.58;0.50;;;;;;;11.49;42.80;98885.16;6043207;23;20516;-90
2022/12/31 06:43:21;;;;;;;1.65;0.50;;;;;;;11.45;42.61;98876.78;6043239;23;20038;-90
2022/12/31 06:45:46;;;;;;;1.92;0.60;;;;;;;11.57;42.90;98883.97;6042480;23;20010;-90
2022/12/31 06:48:12;;;;;;;2.63;0.60;;;;;;;11.67;42.75;98889.56;6043095;23;20014;-90
2022/12/31 06:50:39;;;;;;;2.08;0.60;;;;;;;11.67;42.73;98881.56;6042892;23;20381;-90
2022/12/31 06:53:04;;;;;;;1.73;0.70;;;;;;;11.50;42.93;98865.34;6067118;23;20010;-91
2022/12/31 06:55:33;;;;;;;2.58;0.70;;;;;;;11.66;42.83;98882.63;6043255;23;20007;-90
2022/12/31 06:58:00;;;;;;;2.08;0.65;;;;;;;11.55;42.81;98870.03;6043336;23;20002;-91
2022/12/31 07:00:26;;;;;;;2.40;0.70;;;;;;;11.51;42.71;98850.16;6042953;23;20013;-90
2022/12/31 07:03:46;;;;;;;2.92;0.60;;;;;;;11.76;42.96;98865.97;6043137;23;20021;-90
2022/12/31 07:06:16;;;;;;;1.50;0.80;;;;;;;11.48;42.92;98831.88;5979869;23;20486;-90
2022/12/31 07:08:44;;;;;;;1.58;0.60;;;;;;;11.75;42.86;98881.22;6050572;23;20053;-90
2022/12/31 07:11:13;;;;;;;3.25;0.70;;;;;;;11.76;42.91;98879.34;6090587;23;20058;-90
2022/12/31 07:13:51;;;;;;;3.55;0.80;;;;;;;11.38;42.83;98819.91;6066256;23;20006;-90
2022/12/31 07:16:51;;;;;;;2.78;0.75;;;;;;;11.76;42.86;98869.47;6066594;23;20038;-91
2022/12/31 07:19:36;;;;;;;2.38;0.80;;;;;;;11.61;43.09;98853.06;6090308;23;20513;-90
2022/12/31 07:22:01;;;;;;;;;;;;;;;11.74;42.92;98852.81;6070221;23;20069;-90
2022/12/31 07:24:27;;;;;;;2.72;0.70;;;;;;;11.59;42.94;98834.56;6066365;23;19914;-90
2022/12/31 07:27:06;;;;;;;2.25;0.70;;;;;;;11.35;42.95;98790.09;6023842;23;20081;-90
2022/12/31 07:29:44;;;;;;;2.25;0.80;;;;;;;11.72;42.81;98833.50;6019390;23;20018;-90
2022/12/31 07:32:30;;;;;;;2.80;0.95;;;;;;;11.39;42.91;98778.72;6042458;23;20013;-90
2022/12/31 07:35:14;;;;;;;2.95;0.70;;;;;;;11.74;42.75;98825.25;6044693;23;20006;-90
2022/12/31 07:37:48;;;;;;;2.28;0.85;;;;;;;11.31;43.13;98752.31;6065156;23;20021;-90
2022/12/31 07:40:37;;;;;;;1.10;0.60;;;;;;;11.39;42.88;98765.34;6020124;23;20290;-91
2022/12/31 07:43:21;;;;;;;2.65;0.80;;;;;;;11.74;42.77;98814.53;6046894;23;20010;-91
2022/12/31 07:45:55;;;;;;;1.85;0.75;;;;;;;11.41;43.01;98765.91;6065534;23;20351;-91
2022/12/31 07:48:25;;;;;;;1.80;0.75;;;;;;;11.53;43.11;98776.63;6019067;23;20021;-91
2022/12/31 07:50:53;;;;;;;2.45;0.73;;;;;;;11.44;43.32;98770.81;6041933;23;20786;-91
2022/12/31 07:53:19;;;;;;;2.15;0.60;;;;;;;11.22;42.76;98729.63;6018851;23;20443;-91
2022/12/31 07:55:45;;;;;;;3.83;0.90;;;;;;;11.50;42.96;98773.59;6018421;23;20367;-91
2022/12/31 07:58:37;;;;;;;1.52;0.70;;;;;;;11.74;42.86;98798.47;6018503;23;20030;-91
2022/12/31 08:01:03;;;;;;;3.30;0.90;;;;;;;11.50;42.93;98757.53;6035334;23;20089;-91
2022/12/31 08:03:47;;;;;;;3.60;0.70;;;;;;;11.70;42.87;98803.47;6018541;23;20014;-91
2022/12/31 08:06:29;;;;;;;2.25;0.68;;;;;;;11.41;42.99;98749.06;6066638;23;20021;-91
2022/12/31 08:09:03;;;;;;;3.85;0.80;;;;;;;11.35;42.91;98724.06;6021002;23;20007;-91
2022/12/31 08:11:29;;;;;;;3.15;0.70;;;;;;;11.67;42.95;98782.53;6042906;23;20495;-91
2022/12/31 08:13:55;;;;;;;1.67;0.88;;;;;;;11.63;42.94;98752.75;6066198;23;20010;-91
2022/12/31 08:16:21;;;;;;;3.75;1.13;;;;;;;11.63;42.85;98738.56;6043050;23;20069;-91
2022/12/31 08:18:47;;;;;;;4.03;0.82;;;;;;;11.53;42.90;98727.66;6019794;23;20007;-91
2022/12/31 08:21:39;;;;;;;3.97;1.00;;;;;;;11.39;42.73;98684.28;6019911;23;20002;-90
2022/12/31 08:24:14;;;;;;;2.28;0.90;;;;;;;11.69;42.83;98715.41;6038244;23;20033;-90
2022/12/31 08:26:49;;;;;;;1.42;0.70;;;;;;;11.67;43.04;98715.63;6066833;23;20014;-90
2022/12/31 08:29:22;;;;;;;3.08;0.82;;;;;;;11.54;42.80;98686.44;6043878;23;20224;-90
2022/12/31 08:32:03;;;;;;;2.47;0.90;;;;;;;11.64;42.98;98697.38;6043864;23;20034;-91
2022/12/31 08:34:47;;;;;;;2.13;0.60;;;;;;;11.31;42.74;98631.16;6067353;23;20096;-90
2022/12/31 08:37:16;;;;;;;3.20;1.13;;;;;;;11.50;42.74;98642.50;6045318;23;20093;-90
2022/12/31 08:39:58;;;;;;;1.75;0.65;;;;;;;11.67;42.89;98664.78;6042278;23;20021;-91
2022/12/31 08:42:31;;;;;;;1.67;0.63;;;;;;;11.34;43.00;98607.41;6020197;23;20011;-91
2022/12/31 08:45:25;;;;;;;1.92;0.65;;;;;;;11.67;43.05;98669.34;6042460;23;20011;-91
2022/12/31 08:48:15;;;;;;;2.70;0.68;;;;;;;11.68;42.98;98661.09;6043119;23;20006;-90
2022/12/31 08:50:41;;;;;;;1.88;0.90;;;;;;;11.36;43.09;98613.34;6069187;23;20014;-90
2022/12/31 11:52:32;;;;;;;0.63;0.55;;;;;;;11.59;44.02;98445.75;6243762;22;1669102;-91
2022/12/31 11:55:32;;;;;;;1.13;0.60;;;;;;;11.71;44.17;98465.25;6168593;23;20023;-90
2022/12/31 11:57:59;;;;;;;1.73;0.65;;;;;;;11.45;43.99;98430.03;6212170;23;20000;-90
2022/12/31 12:00:28;;;;;;;0.80;0.70;;;;;;;11.56;44.32;98436.38;6182281;23;20016;-90
2022/12/31 12:03:02;;;;;;;0.93;0.65;;;;;;;11.39;44.29;98401.56;6188683;23;20094;-90
2022/12/31 12:05:28;;;;;;;1.45;0.75;;;;;;;11.54;44.08;98424.28;6187933;23;20004;-90
2022/12/31 12:07:53;;;;;;;1.02;0.70;;;;;;;11.46;44.00;98412.94;6187103;23;20023;-90
2022/12/31 12:10:46;;;;;;;1.38;0.60;;;;;;;11.53;43.93;98422.66;6187915;23;20075;-90
2022/12/31 12:13:23;;;;;;;1.45;0.70;;;;;;;11.54;44.10;98413.56;6156790;23;20035;-90
2022/12/31 12:15:59;;;;;;;1.48;0.60;;;;;;;11.40;44.00;98397.03;6186827;23;20035;-90
2022/12/31 12:18:32;;;;;;;3.53;1.10;;;;;;;11.50;44.37;98396.41;6187684;23;20075;-90
2022/12/31 12:21:12;;;;;;;1.20;0.73;;;;;;;11.59;44.30;98424.38;6188453;23;20007;-90
2022/12/31 12:23:38;;;;;;;1.58;0.75;;;;;;;11.70;44.48;98446.78;6187533;23;20073;-90
2022/12/31 12:26:05;;;;;;;1.25;0.73;;;;;;;11.69;44.29;98421.06;6186919;23;20011;-90
2022/12/31 12:28:41;;;;;;;1.63;0.70;;;;;;;11.56;44.16;98387.41;6188088;23;20330;-90
2022/12/31 12:31:18;;;;;;;1.90;0.70;;;;;;;11.63;44.01;98401.44;6187035;23;20008;-90
2022/12/31 12:33:45;;;;;;;1.40;0.88;;;;;;;11.74;44.29;98419.25;6213291;23;20015;-90
2022/12/31 12:36:13;;;;;;;1.17;0.75;;;;;;;11.44;43.98;98372.25;6188003;23;20005;-90
2022/12/31 12:38:39;;;;;;;1.40;0.70;;;;;;;11.60;44.09;98412.63;6188626;23;20008;-90
2022/12/31 12:41:09;;;;;;;1.38;0.80;;;;;;;11.43;44.17;98385.84;6188308;23;20027;-90
2022/12/31 12:43:36;;;;;;;1.25;0.73;;;;;;;11.65;44.39;98431.44;6188996;23;20008;-90
2022/12/31 12:46:06;;;;;;;1.17;0.80;;;;;;;11.36;44.37;98399.38;6187265;23;20031;-90
2022/12/31 12:48:35;;;;;;;1.85;0.80;;;;;;;11.74;44.16;98445.22;6188038;23;20385;-90
2022/12/31 12:51:21;;;;;;;1.63;0.77;;;;;;;11.53;44.35;98422.66;6238286;23;20004;-90
2022/12/31 12:54:12;;;;;;;2.00;0.75;;;;;;;11.75;44.29;98446.84;6215151;23;20020;-90
2022/12/31 12:56:48;;;;;;;1.60;0.73;;;;;;;11.48;44.48;98414.56;6213219;23;20264;-89
2022/12/31 12:59:39;;;;;;;1.40;0.75;;;;;;;11.59;44.45;98443.91;6188042;23;20174;-90
2022/12/31 13:02:28;;;;;;;2.58;0.80;;;;;;;11.73;44.27;98465.81;6212800;23;20020;-90
2022/12/31 13:05:19;;;;;;;1.08;0.80;;;;;;;11.66;44.31;98465.19;6212285;23;20650;-90
2022/12/31 13:08:02;;;;;;;1.63;0.82;;;;;;;11.53;44.24;98430.69;6191350;23;20353;-90
2022/12/31 13:10:46;;;;;;;2.47;1.23;;;;;;;11.76;44.42;98443.94;6213329;23;20337;-90
2022/12/31 13:13:40;;;;;;;0.93;0.60;;;;;;;11.49;44.23;98417.00;6237570;23;20054;-90
2022/12/31 13:16:36;;;;;;;1.88;0.80;;;;;;;11.73;44.27;98455.13;6214999;23;20012;-89
2022/12/31 13:19:23;;;;;;;1.15;0.63;;;;;;;11.74;44.32;98456.72;6212925;23;20327;-90
2022/12/31 13:21:57;;;;;;;1.27;0.73;;;;;;;11.51;44.43;98430.13;6237838;23;20083;-90
2022/12/31 13:24:42;;;;;;;1.40;0.70;;;;;;;11.55;44.37;98413.34;6213850;23;20066;-90
2022/12/31 13:27:16;;;;;;;1.42;0.90;;;;;;;11.47;44.36;98395.03;6214362;23;20012;-90
2022/12/31 13:29:42;;;;;;;1.20;0.73;;;;;;;11.54;44.44;98408.22;6188573;23;20012;-89
2022/12/31 13:32:10;;;;;;;1.70;0.98;;;;;;;11.65;44.57;98426.06;6188028;23;20058;-90
2022/12/31 13:34:39;;;;;;;1.98;1.00;;;;;;;11.37;44.50;98389.50;6189350;23;20390;-90
2022/12/31 13:37:21;;;;;;;0.75;0.73;;;;;;;11.59;44.54;98427.03;6188585;23;20394;-91
2022/12/31 13:39:55;;;;;;;1.92;0.90;;;;;;;11.40;44.82;98400.53;6191273;23;20004;-89
2022/12/31 13:42:42;;;;;;;2.15;1.00;;;;;;;11.43;44.39;98402.72;6189097;23;20387;-90
2022/12/31 13:45:11;;;;;;;1.40;1.00;;;;;;;11.65;44.42;98418.84;6218295;23;20012;-90
2022/12/31 13:47:55;;;;;;;1.60;0.90;;;;;;;11.56;44.27;98400.78;6190031;23;20386;-90
2022/12/31 13:50:30;;;;;;;2.20;1.00;;;;;;;11.50;44.43;98397.19;6191557;23;20008;-89
2022/12/31 13:53:04;;;;;;;1.90;1.00;;;;;;;11.59;44.19;98405.63;6190551;23;20030;-90
2022/12/31 13:55:39;;;;;;;2.72;0.90;;;;;;;11.60;44.55;98393.88;6215299;23;20008;-90
2022/12/31 13:58:13;;;;;;;1.00;0.90;;;;;;;11.76;44.34;98419.84;6185694;23;19996;-90
2022/12/31 14:00:48;;;;;;;1.35;0.90;;;;;;;11.41;44.61;98378.06;6239597;23;20012;-90
2022/12/31 14:03:16;;;;;;;1.58;1.05;;;;;;;11.54;44.55;98376.94;6189298;23;20031;-90
2022/12/31 14:05:55;;;;;;;1.30;1.02;;;;;;;11.73;44.45;98414.97;6213092;23;20023;-90
2022/12/31 14:08:21;;;;;;;2.15;0.90;;;;;;;11.75;44.64;98418.22;6189525;23;20078;-90
2022/12/31 14:10:54;;;;;;;1.00;0.80;;;;;;;11.78;44.47;98425.78;6188925;23;20020;-90
2022/12/31 14:14:05;;;;;;;1.05;0.80;;;;;;;11.48;44.56;98383.25;6214010;23;20016;-90
2022/12/31 14:16:46;;;;;;;1.98;0.98;;;;;;;11.52;44.41;98375.56;6213432;23;20091;-90
2022/12/31 14:19:51;;;;;;;1.48;1.10;;;;;;;11.77;44.50;98413.44;6188492;23;20004;-89
2022/12/31 14:22:21;;;;;;;1.73;1.00;;;;;;;11.73;44.67;98423.00;6213631;23;20108;-90
2022/12/31 14:24:50;;;;;;;1.90;1.13;;;;;;;11.45;44.61;98381.91;6239722;23;20011;-89
2022/12/31 14:27:24;;;;;;;1.40;0.82;;;;;;;11.58;44.52;98398.69;6213806;23;20098;-90
2022/12/31 14:29:56;;;;;;;1.83;1.30;;;;;;;11.74;44.57;98397.84;6189337;23;20019;-90
2022/12/31 14:32:31;;;;;;;1.92;0.90;;;;;;;11.78;44.55;98403.53;6213248;23;20453;-90
2022/12/31 14:35:00;;;;;;;1.30;0.80;;;;;;;11.75;44.52;98399.50;6238924;23;20063;-90
2022/12/31 14:37:34;;;;;;;1.48;0.90;;;;;;;11.75;44.64;98404.84;6213901;23;20012;-90
2022/12/31 14:40:29;;;;;;;1.98;1.02;;;;;;;11.45;44.22;98351.66;6238469;23;20015;-89
2022/12/31 14:43:37;;;;;;;1.63;0.90;;;;;;;11.71;44.60;98376.97;6205179;23;20016;-89
2022/12/31 14:46:32;;;;;;;1.88;1.00;;;;;;;11.73;44.58;98393.56;6173572;23;20357;-89
2022/12/31 14:49:22;;;;;;;2.92;1.20;;;;;;;11.76;44.36;98379.72;6213601;23;20146;-90
2022/12/31 14:51:48;;;;;;;2.08;1.10;;;;;;;11.48;44.73;98350.38;6212993;23;20111;-90
2022/12/31 14:54:59;;;;;;;1.52;1.02;;;;;;;11.76;44.55;98387.75;6189768;23;20083;-89
2022/12/31 14:57:32;;;;;;;2.38;1.02;;;;;;;11.71;44.57;98366.25;6069514;23;20044;-89
2022/12/31 15:00:01;;;;;;;1.50;1.00;;;;;;;11.76;44.47;98360.97;6176291;23;20043;-90
2022/12/31 15:02:29;;;;;;;1.85;0.90;;;;;;;11.56;44.61;98318.66;6189416;23;20008;-89